Time;durP1;ratioP1;P1;durP2;ratioP2;P2;SDS_P1;SDS_P2;PMS_P1;PMS_P2;Temp;Humidity;BMP_temperature;BMP_pressure;BME280_temperature;BME280_humidity;BME280_pressure;Samples;Min_cycle;Max_cycle;Signal;HPM_P1;HPM_P2
2023/07/08 00:02:13;;;;;;;7.90;4.45;;;17.50;99.90;;;;;;4958479;28;20039;-66
2023/07/08 00:04:39;;;;;;;7.97;5.07;;;17.50;99.90;;;;;;4941284;29;20090;-66
2023/07/08 00:07:10;;;;;;;9.90;5.15;;;17.50;99.90;;;;;;4959103;28;20058;-65
2023/07/08 00:09:36;;;;;;;11.35;5.70;;;17.40;99.90;;;;;;4926410;29;20492;-65
2023/07/08 00:12:04;;;;;;;9.52;5.10;;;17.40;99.90;;;;;;4958722;28;20043;-65
2023/07/08 00:14:30;;;;;;;9.85;5.25;;;17.30;99.90;;;;;;4941185;29;20047;-65
2023/07/08 00:16:56;;;;;;;7.90;5.05;;;17.30;99.90;;;;;;4957220;29;20043;-65
2023/07/08 00:19:23;;;;;;;11.35;5.82;;;17.20;99.90;;;;;;4941289;29;20047;-65
2023/07/08 00:21:51;;;;;;;7.88;4.82;;;17.10;99.90;;;;;;4941624;29;20491;-65
2023/07/08 00:24:17;;;;;;;9.43;5.25;;;17.10;99.90;;;;;;4957109;29;20522;-65
2023/07/08 00:26:43;;;;;;;8.60;5.15;;;17.10;99.90;;;;;;4941129;29;20039;-66
2023/07/08 00:29:12;;;;;;;8.93;4.97;;;17.00;99.90;;;;;;4957019;29;20444;-66
2023/07/08 00:31:38;;;;;;;8.35;5.28;;;17.00;99.90;;;;;;4972964;28;20042;-66
2023/07/08 00:34:04;;;;;;;8.32;5.20;;;16.90;99.90;;;;;;4958339;28;20039;-66
2023/07/08 00:36:30;;;;;;;10.43;5.22;;;16.90;99.90;;;;;;4956917;29;20428;-66
2023/07/08 00:38:59;;;;;;;10.75;6.13;;;16.80;99.90;;;;;;4957012;29;20082;-66
2023/07/08 00:41:36;;;;;;;10.55;6.05;;;16.80;99.90;;;;;;4956723;29;20035;-67
2023/07/08 00:44:02;;;;;;;10.15;5.57;;;16.70;99.90;;;;;;4940859;29;20061;-66
2023/07/08 00:46:30;;;;;;;9.40;6.35;;;16.70;99.90;;;;;;4941046;29;20135;-66
2023/07/08 00:49:20;;;;;;;9.27;5.30;;;16.70;99.90;;;;;;4956867;29;20436;-66
2023/07/08 00:51:46;;;;;;;8.40;5.68;;;16.70;99.90;;;;;;4946500;29;20051;-66
2023/07/08 00:54:14;;;;;;;9.10;5.80;;;16.70;99.90;;;;;;4956724;29;20091;-65
2023/07/08 00:57:01;;;;;;;10.38;5.70;;;16.60;99.90;;;;;;4956414;29;20106;-66
2023/07/08 00:59:52;;;;;;;8.60;5.10;;;16.60;99.90;;;;;;4957615;28;20090;-66
2023/07/08 01:02:21;;;;;;;9.77;5.55;;;16.60;99.90;;;;;;4956079;28;20055;-67
2023/07/08 01:05:01;;;;;;;10.23;5.65;;;16.50;99.90;;;;;;4956265;29;20098;-65
2023/07/08 01:07:27;;;;;;;9.75;5.40;;;16.50;99.90;;;;;;4956246;29;20051;-66
2023/07/08 01:10:06;;;;;;;9.43;5.72;;;16.50;99.90;;;;;;4957395;28;20137;-66
2023/07/08 01:12:36;;;;;;;10.52;6.40;;;16.50;99.90;;;;;;4957042;28;20035;-66
2023/07/08 01:15:04;;;;;;;9.77;6.25;;;16.40;99.90;;;;;;4956251;29;20043;-67
2023/07/08 01:17:32;;;;;;;10.23;6.28;;;16.30;99.90;;;;;;4956402;29;20082;-69
2023/07/08 01:19:59;;;;;;;10.38;6.35;;;16.30;99.90;;;;;;4956289;29;20051;-67
2023/07/08 01:22:31;;;;;;;9.77;6.22;;;16.20;99.90;;;;;;4957196;28;20047;-72
2023/07/08 01:25:02;;;;;;;9.77;6.68;;;16.20;99.90;;;;;;4955961;29;20499;-69
2023/07/08 01:27:31;;;;;;;11.90;7.20;;;16.20;99.90;;;;;;4955894;29;20058;-66
2023/07/08 01:29:58;;;;;;;10.50;6.82;;;16.10;99.90;;;;;;4956115;29;20075;-66
2023/07/08 01:32:24;;;;;;;10.82;6.72;;;16.10;99.90;;;;;;4957391;28;20043;-66
2023/07/08 01:35:01;;;;;;;10.70;6.47;;;16.00;99.90;;;;;;4956018;29;20043;-66
2023/07/08 01:37:40;;;;;;;9.35;6.30;;;15.90;99.90;;;;;;4956939;28;20403;-67
2023/07/08 01:40:15;;;;;;;9.88;6.22;;;15.90;99.90;;;;;;4955762;29;20126;-65
2023/07/08 01:42:41;;;;;;;10.73;7.18;;;15.90;99.90;;;;;;4955628;29;20086;-66
2023/07/08 01:45:15;;;;;;;9.65;6.63;;;15.90;99.90;;;;;;4939468;29;20051;-66
2023/07/08 01:47:45;;;;;;;12.13;6.90;;;15.90;99.90;;;;;;4955556;29;20042;-67
2023/07/08 01:50:11;;;;;;;10.00;6.85;;;15.90;99.90;;;;;;4955479;29;20051;-66
2023/07/08 01:52:37;;;;;;;11.48;6.85;;;15.90;99.90;;;;;;4956987;28;20083;-67
2023/07/08 01:55:04;;;;;;;11.93;6.80;;;15.80;99.90;;;;;;4956682;28;20051;-66
2023/07/08 01:57:30;;;;;;;10.35;6.90;;;15.70;99.90;;;;;;4956546;28;20083;-66
2023/07/08 01:59:55;;;;;;;9.15;6.78;;;15.70;99.90;;;;;;4955385;29;20085;-66
2023/07/08 02:02:24;;;;;;;10.38;7.03;;;15.60;99.90;;;;;;4955426;29;20055;-66
2023/07/08 02:04:50;;;;;;;10.18;6.88;;;15.60;99.90;;;;;;4955147;29;20051;-67
2023/07/08 02:07:15;;;;;;;10.38;6.80;;;15.70;99.90;;;;;;4955262;29;20066;-66
2023/07/08 02:09:41;;;;;;;12.27;7.25;;;15.70;99.90;;;;;;4956727;28;20035;-68
2023/07/08 02:12:08;;;;;;;11.88;7.00;;;15.70;99.90;;;;;;4956603;28;20075;-67
2023/07/08 02:14:34;;;;;;;11.38;7.47;;;15.60;99.90;;;;;;4956316;28;20039;-67
2023/07/08 02:16:59;;;;;;;9.85;6.68;;;15.60;99.90;;;;;;4939042;29;20051;-67
2023/07/08 02:19:25;;;;;;;10.90;7.45;;;15.60;99.90;;;;;;4954946;29;20070;-66
2023/07/08 02:21:54;;;;;;;9.35;6.93;;;15.60;99.90;;;;;;4955793;28;20487;-66
2023/07/08 02:24:22;;;;;;;13.43;7.20;;;15.60;99.90;;;;;;4955834;28;20039;-68
2023/07/08 02:26:47;;;;;;;12.32;6.90;;;15.60;99.90;;;;;;4939022;29;20611;-67
2023/07/08 02:29:13;;;;;;;11.57;7.95;;;15.50;99.90;;;;;;4956356;28;20122;-67
2023/07/08 02:31:39;;;;;;;11.40;7.53;;;15.50;99.90;;;;;;4955871;28;20039;-67
2023/07/08 02:34:05;;;;;;;11.90;7.50;;;15.50;99.90;;;;;;4954898;29;20122;-66
2023/07/08 02:36:31;;;;;;;12.93;8.23;;;15.50;99.90;;;;;;4954619;29;20047;-67
2023/07/08 02:38:56;;;;;;;11.27;7.82;;;15.50;99.90;;;;;;4956074;28;20043;-67
2023/07/08 02:41:22;;;;;;;11.77;7.22;;;15.50;99.90;;;;;;4954751;29;20045;-66
2023/07/08 02:43:48;;;;;;;12.10;8.20;;;15.40;99.90;;;;;;4954622;29;20078;-66
2023/07/08 02:46:14;;;;;;;10.25;7.88;;;15.30;99.90;;;;;;4955735;28;20102;-66
2023/07/08 02:48:39;;;;;;;10.05;7.80;;;15.30;99.90;;;;;;4954671;29;20130;-66
2023/07/08 02:51:05;;;;;;;11.60;7.70;;;15.20;99.90;;;;;;4954383;29;20039;-66
2023/07/08 02:53:31;;;;;;;11.38;7.95;;;15.20;99.90;;;;;;4954317;29;20051;-66
2023/07/08 02:55:57;;;;;;;13.43;8.57;;;15.20;99.90;;;;;;4955878;28;20042;-66
2023/07/08 02:58:24;;;;;;;12.93;7.78;;;15.20;99.90;;;;;;4955617;28;20090;-66
2023/07/08 03:00:54;;;;;;;12.77;7.88;;;15.20;99.90;;;;;;4955373;28;20122;-66
2023/07/08 03:03:20;;;;;;;11.75;8.15;;;15.20;99.90;;;;;;4955379;28;20447;-66
2023/07/08 03:05:58;;;;;;;12.18;8.40;;;15.10;99.90;;;;;;4955502;28;20075;-66
2023/07/08 03:08:25;;;;;;;11.10;8.25;;;15.10;99.90;;;;;;4954191;29;20097;-65
2023/07/08 03:10:57;;;;;;;12.13;8.20;;;15.00;99.90;;;;;;4954395;29;20116;-66
2023/07/08 03:13:24;;;;;;;11.88;8.30;;;15.00;99.90;;;;;;4955615;28;20035;-65
2023/07/08 03:15:50;;;;;;;11.38;7.70;;;15.00;99.90;;;;;;4955268;28;20035;-65
2023/07/08 03:18:16;;;;;;;12.35;8.27;;;15.00;99.90;;;;;;4938029;29;20085;-65
2023/07/08 03:20:44;;;;;;;13.90;8.30;;;15.10;99.90;;;;;;4953920;29;20071;-65
2023/07/08 03:23:11;;;;;;;15.50;8.38;;;15.00;99.90;;;;;;4955387;28;20510;-66
2023/07/08 03:25:37;;;;;;;12.27;7.68;;;14.90;99.90;;;;;;4955174;28;20058;-66
2023/07/08 03:28:05;;;;;;;11.27;8.63;;;14.90;99.90;;;;;;4954106;29;20109;-65
2023/07/08 03:30:32;;;;;;;12.95;9.00;;;14.90;99.90;;;;;;4954039;29;20054;-66
2023/07/08 03:32:59;;;;;;;11.77;8.25;;;14.80;99.90;;;;;;4954061;29;20514;-65
2023/07/08 03:35:24;;;;;;;16.02;8.70;;;14.80;99.90;;;;;;4953506;29;20058;-65
2023/07/08 03:37:51;;;;;;;11.15;7.70;;;14.90;99.90;;;;;;4955262;28;20475;-65
2023/07/08 03:40:17;;;;;;;13.95;9.00;;;14.80;99.90;;;;;;4955245;28;20047;-66
2023/07/08 03:42:42;;;;;;;12.82;8.80;;;14.80;99.90;;;;;;4955235;28;20551;-66
2023/07/08 03:45:09;;;;;;;12.13;8.65;;;14.90;99.90;;;;;;4953909;29;20038;-65
2023/07/08 03:47:35;;;;;;;13.13;8.18;;;14.90;99.90;;;;;;4953754;29;20090;-66
2023/07/08 03:50:01;;;;;;;12.07;9.32;;;14.90;99.90;;;;;;4953687;29;20047;-66
2023/07/08 03:52:27;;;;;;;13.85;8.60;;;14.80;99.90;;;;;;4953619;29;20059;-66
2023/07/08 03:54:53;;;;;;;11.57;8.20;;;14.80;99.90;;;;;;4953932;29;20094;-66
2023/07/08 03:57:19;;;;;;;12.75;8.35;;;14.90;99.90;;;;;;4953808;29;20059;-66
2023/07/08 03:59:45;;;;;;;12.32;8.60;;;14.90;99.90;;;;;;4953930;29;20043;-66
2023/07/08 04:02:11;;;;;;;14.38;8.15;;;14.80;99.90;;;;;;4953404;29;20043;-67
2023/07/08 04:04:37;;;;;;;11.48;8.00;;;14.90;99.90;;;;;;4953522;29;20055;-66
2023/07/08 04:07:06;;;;;;;11.80;8.80;;;14.90;99.90;;;;;;4954748;28;20487;-66
2023/07/08 04:09:32;;;;;;;11.50;8.65;;;14.90;99.90;;;;;;4955009;28;20062;-66
2023/07/08 04:11:59;;;;;;;12.07;8.23;;;14.90;99.90;;;;;;4955021;28;20071;-66
2023/07/08 04:14:25;;;;;;;12.00;8.10;;;14.90;99.90;;;;;;4954927;28;20039;-66
2023/07/08 04:16:57;;;;;;;12.63;8.55;;;14.90;99.90;;;;;;4954978;28;20483;-66
2023/07/08 04:19:23;;;;;;;;;;;14.90;99.90;;;;;;4954268;29;20504;-65
2023/07/08 04:21:49;;;;;;;10.77;8.30;;;14.90;99.90;;;;;;4953429;29;19962;-65
2023/07/08 04:24:17;;;;;;;12.00;7.93;;;14.90;99.90;;;;;;4953264;29;20130;-65
2023/07/08 04:26:46;;;;;;;11.32;8.27;;;15.00;99.90;;;;;;4953422;29;20039;-65
2023/07/08 04:29:20;;;;;;;12.45;8.35;;;15.10;99.90;;;;;;4953746;29;20050;-66
2023/07/08 04:31:46;;;;;;;11.20;7.68;;;15.10;99.90;;;;;;4954695;28;20051;-66
2023/07/08 04:34:15;;;;;;;11.68;7.72;;;15.10;99.90;;;;;;4953550;29;20514;-66
2023/07/08 04:36:42;;;;;;;10.38;8.23;;;15.20;99.90;;;;;;4953638;29;20090;-66
2023/07/08 04:39:09;;;;;;;11.20;7.60;;;15.30;99.90;;;;;;4954527;28;20491;-66
2023/07/08 04:41:43;;;;;;;11.02;8.02;;;15.30;99.90;;;;;;4953381;29;20498;-66
2023/07/08 04:44:10;;;;;;;13.15;7.80;;;15.30;99.90;;;;;;4954683;28;20137;-66
2023/07/08 04:46:44;;;;;;;11.52;8.35;;;15.30;99.90;;;;;;4956554;28;20503;-66
2023/07/08 04:49:10;;;;;;;12.75;8.50;;;15.40;99.90;;;;;;4957815;28;20039;-66
2023/07/08 04:51:37;;;;;;;12.20;8.55;;;15.40;99.90;;;;;;4956517;29;20042;-66
2023/07/08 04:54:04;;;;;;;10.68;7.97;;;15.50;99.90;;;;;;4940861;29;20501;-66
2023/07/08 04:56:46;;;;;;;10.43;7.85;;;15.50;99.90;;;;;;4956806;29;20482;-66
2023/07/08 04:59:15;;;;;;;10.30;7.70;;;15.60;99.90;;;;;;4956739;29;20487;-66
2023/07/08 05:01:41;;;;;;;10.48;7.28;;;15.60;99.90;;;;;;4957870;28;20053;-66
2023/07/08 05:04:09;;;;;;;11.48;7.88;;;15.80;99.90;;;;;;4957430;28;20414;-66
2023/07/08 05:06:35;;;;;;;10.43;8.05;;;16.00;99.90;;;;;;4956709;29;20043;-66
2023/07/08 05:09:02;;;;;;;12.75;8.23;;;16.20;99.90;;;;;;4940596;29;20451;-66
2023/07/08 05:11:29;;;;;;;11.93;8.25;;;16.40;99.90;;;;;;4956430;29;20562;-66
2023/07/08 05:13:55;;;;;;;12.90;8.30;;;16.60;99.90;;;;;;4956399;29;20492;-66
2023/07/08 05:16:21;;;;;;;11.30;6.97;;;16.70;99.90;;;;;;4956820;29;20502;-66
2023/07/08 05:18:47;;;;;;;14.98;6.95;;;17.00;99.90;;;;;;4956458;29;20043;-66
2023/07/08 05:21:13;;;;;;;10.82;7.43;;;17.30;99.90;;;;;;4957265;28;20043;-66
2023/07/08 05:23:39;;;;;;;10.07;6.63;;;17.50;99.90;;;;;;4955944;29;20130;-66
2023/07/08 05:26:07;;;;;;;11.15;7.80;;;18.00;99.90;;;;;;4956205;29;20143;-66
2023/07/08 05:28:34;;;;;;;10.32;7.07;;;18.20;99.90;;;;;;4955889;29;20094;-66
2023/07/08 05:31:00;;;;;;;9.00;6.35;;;18.30;99.90;;;;;;4957154;28;20044;-66
2023/07/08 05:33:27;;;;;;;12.40;6.82;;;18.30;99.90;;;;;;4955806;29;20122;-66
2023/07/08 05:35:54;;;;;;;10.02;5.93;;;18.90;99.90;;;;;;4955787;29;20044;-66
2023/07/08 05:38:20;;;;;;;9.60;5.95;;;19.90;99.90;;;;;;4955868;29;20075;-66
2023/07/08 05:40:51;;;;;;;9.57;6.35;;;21.10;99.90;;;;;;4971887;28;20046;-66
2023/07/08 05:43:17;;;;;;;8.68;6.25;;;21.10;99.90;;;;;;4957108;28;20043;-66
2023/07/08 05:45:43;;;;;;;9.60;6.00;;;21.10;99.90;;;;;;4955871;29;20050;-66
2023/07/08 05:48:09;;;;;;;8.43;5.60;;;21.20;99.90;;;;;;4956888;28;20125;-66
2023/07/08 05:50:35;;;;;;;9.73;5.40;;;21.30;99.90;;;;;;4957041;28;20035;-66
2023/07/08 05:53:01;;;;;;;7.55;5.32;;;21.50;99.90;;;;;;4957012;28;20543;-66
2023/07/08 05:55:27;;;;;;;9.27;6.03;;;21.60;99.90;;;;;;4955623;29;20054;-66
2023/07/08 05:57:53;;;;;;;9.48;5.30;;;22.00;99.90;;;;;;4956737;28;20424;-66
2023/07/08 06:00:19;;;;;;;8.25;5.20;;;22.40;99.90;;;;;;4955296;29;20036;-66
2023/07/08 06:02:45;;;;;;;8.65;4.95;;;22.50;99.90;;;;;;4956498;28;20059;-66
2023/07/08 06:05:10;;;;;;;9.80;5.05;;;22.50;98.90;;;;;;4956654;29;20047;-66
2023/07/08 06:07:36;;;;;;;8.57;4.72;;;22.70;98.30;;;;;;4956325;28;20501;-66
2023/07/08 06:10:02;;;;;;;9.32;5.07;;;22.70;98.60;;;;;;4955417;29;20094;-66
2023/07/08 06:12:30;;;;;;;7.68;4.90;;;23.20;97.60;;;;;;4954967;29;20039;-66
2023/07/08 06:14:56;;;;;;;7.35;4.80;;;23.10;97.10;;;;;;4954988;29;20051;-65
2023/07/08 06:17:22;;;;;;;10.40;4.90;;;23.30;96.20;;;;;;4955250;29;20057;-66
2023/07/08 06:19:48;;;;;;;7.10;4.28;;;23.50;96.80;;;;;;4956165;28;20182;-66
2023/07/08 06:22:14;;;;;;;9.05;4.72;;;24.20;96.50;;;;;;4956478;28;20118;-66
2023/07/08 06:24:40;;;;;;;7.68;4.70;;;24.50;94.80;;;;;;4956048;28;20043;-66
2023/07/08 06:27:06;;;;;;;9.73;4.80;;;24.30;94.10;;;;;;4956044;28;20066;-66
2023/07/08 06:29:34;;;;;;;7.43;4.72;;;24.20;94.10;;;;;;4970956;28;20134;-66
2023/07/08 06:32:00;;;;;;;8.80;4.65;;;23.70;94.00;;;;;;4955955;28;20039;-66
2023/07/08 06:34:26;;;;;;;7.47;4.40;;;23.80;94.00;;;;;;4938830;29;20047;-65
2023/07/08 06:36:52;;;;;;;8.18;4.40;;;23.70;93.70;;;;;;4954977;29;20102;-65
2023/07/08 06:39:19;;;;;;;8.02;4.60;;;23.80;93.60;;;;;;4954663;29;20047;-65
2023/07/08 06:41:45;;;;;;;8.15;4.18;;;23.80;93.40;;;;;;4954865;29;20055;-65
2023/07/08 06:44:11;;;;;;;7.88;4.30;;;23.90;93.50;;;;;;4955941;28;20043;-64
2023/07/08 06:46:37;;;;;;;7.40;3.97;;;23.90;93.10;;;;;;4956049;28;20078;-65
2023/07/08 06:49:03;;;;;;;7.22;4.07;;;24.10;92.90;;;;;;4938477;29;20101;-65
2023/07/08 06:51:29;;;;;;;8.10;4.22;;;24.10;92.70;;;;;;4955686;28;20106;-65
2023/07/08 06:53:55;;;;;;;7.82;4.45;;;24.30;92.40;;;;;;4955680;28;20047;-65
2023/07/08 06:56:21;;;;;;;7.25;4.22;;;24.30;92.20;;;;;;4954307;29;20098;-66
2023/07/08 06:58:47;;;;;;;7.57;4.05;;;24.50;91.60;;;;;;4955415;28;20126;-65
2023/07/08 07:01:13;;;;;;;10.13;4.47;;;24.30;91.60;;;;;;4954273;29;20130;-65
2023/07/08 07:03:39;;;;;;;6.60;3.88;;;24.60;92.00;;;;;;4954162;29;20134;-65
2023/07/08 07:06:05;;;;;;;7.05;4.13;;;24.80;91.10;;;;;;4954226;29;20118;-65
2023/07/08 07:08:31;;;;;;;7.90;4.00;;;24.60;90.90;;;;;;4953762;28;20118;-66
2023/07/08 07:10:56;;;;;;;8.32;4.00;;;25.00;91.30;;;;;;4955682;28;20039;-65
2023/07/08 07:13:22;;;;;;;7.88;3.83;;;25.40;91.00;;;;;;4954505;29;20055;-66
2023/07/08 07:15:49;;;;;;;6.57;3.70;;;25.70;90.50;;;;;;4955531;28;20380;-65
2023/07/08 07:18:15;;;;;;;6.93;4.00;;;25.70;89.70;;;;;;4956086;28;20394;-76
2023/07/08 07:20:50;;;;;;;6.72;3.95;;;25.80;86.80;;;;;;4955192;28;20122;-76
2023/07/08 07:23:17;;;;;;;8.15;4.03;;;25.60;87.10;;;;;;4954069;29;20122;-75
2023/07/08 07:25:45;;;;;;;6.63;3.90;;;25.70;88.80;;;;;;4955097;28;20090;-76
2023/07/08 07:28:11;;;;;;;7.65;3.70;;;26.00;85.80;;;;;;4955103;28;20043;-75
2023/07/08 07:30:36;;;;;;;8.10;3.92;;;26.00;87.00;;;;;;4955068;28;20043;-76
2023/07/08 07:33:02;;;;;;;8.40;4.35;;;25.90;87.00;;;;;;4954112;29;20078;-76
2023/07/08 07:35:28;;;;;;;7.35;3.67;;;26.10;87.00;;;;;;4955357;28;20556;-74
2023/07/08 07:37:54;;;;;;;6.43;3.70;;;26.20;86.20;;;;;;4953722;29;20293;-74
2023/07/08 07:40:20;;;;;;;7.32;4.05;;;26.30;86.10;;;;;;4954996;28;20104;-74
2023/07/08 07:42:46;;;;;;;7.72;3.70;;;26.00;85.40;;;;;;4955293;28;20595;-74
2023/07/08 07:45:13;;;;;;;7.90;3.90;;;26.30;88.10;;;;;;4953686;29;20141;-74
2023/07/08 07:47:39;;;;;;;8.18;3.28;;;26.40;85.40;;;;;;4955240;28;20505;-73
2023/07/08 07:50:08;;;;;;;6.93;3.65;;;26.70;88.40;;;;;;4953988;29;20436;-74
2023/07/08 07:52:34;;;;;;;7.90;3.72;;;26.90;85.60;;;;;;4954003;29;20039;-74
2023/07/08 07:55:00;;;;;;;7.25;3.40;;;27.10;84.70;;;;;;4953921;29;20114;-74
2023/07/08 07:57:26;;;;;;;8.90;3.30;;;27.20;83.90;;;;;;4955116;28;20047;-74
2023/07/08 07:59:51;;;;;;;6.38;3.53;;;27.50;83.50;;;;;;4955168;28;20495;-74
2023/07/08 08:02:18;;;;;;;6.80;3.65;;;27.60;82.90;;;;;;4955111;28;20043;-74
2023/07/08 08:04:44;;;;;;;7.15;3.55;;;27.60;80.90;;;;;;4954571;28;20051;-74
2023/07/08 08:07:09;;;;;;;6.45;3.60;;;27.40;80.20;;;;;;4954917;28;20114;-73
2023/07/08 08:09:37;;;;;;;8.10;3.60;;;27.40;79.40;;;;;;4937578;29;20476;-72
2023/07/08 08:12:04;;;;;;;6.97;3.45;;;27.40;80.30;;;;;;4954749;28;20073;-71
2023/07/08 08:14:30;;;;;;;6.57;3.45;;;27.60;81.80;;;;;;4953812;29;20054;-72
2023/07/08 08:16:56;;;;;;;7.53;3.50;;;27.80;82.50;;;;;;4953537;29;20105;-74
2023/07/08 08:19:22;;;;;;;7.63;3.40;;;27.90;77.70;;;;;;4953518;28;20039;-73
2023/07/08 08:21:48;;;;;;;7.57;3.60;;;27.70;80.40;;;;;;4958530;28;20058;-73
2023/07/08 08:24:14;;;;;;;9.38;3.97;;;27.80;80.70;;;;;;4958358;28;20478;-73
2023/07/08 08:26:40;;;;;;;8.55;3.72;;;27.60;78.10;;;;;;4957543;29;20107;-72
2023/07/08 08:29:05;;;;;;;6.68;3.55;;;27.70;78.60;;;;;;4958337;28;20047;-72
2023/07/08 08:31:32;;;;;;;6.93;3.33;;;27.90;81.70;;;;;;4958567;28;20039;-73
2023/07/08 08:33:57;;;;;;;6.93;3.45;;;28.20;78.50;;;;;;4958112;28;20083;-72
2023/07/08 08:36:23;;;;;;;8.00;3.70;;;28.10;78.40;;;;;;4957273;29;20039;-72
2023/07/08 08:38:49;;;;;;;8.05;3.85;;;27.90;76.30;;;;;;4956886;29;20039;-73
2023/07/08 08:41:18;;;;;;;6.75;3.22;;;27.50;75.70;;;;;;4958040;28;20035;-73
2023/07/08 08:43:47;;;;;;;6.15;3.53;;;27.60;77.70;;;;;;4958204;29;20066;-73
2023/07/08 08:46:18;;;;;;;6.25;3.70;;;27.70;79.40;;;;;;4956879;29;20106;-74
2023/07/08 08:49:16;;;;;;;6.13;3.30;;;27.90;76.60;;;;;;4957784;28;20043;-72
2023/07/08 08:51:42;;;;;;;7.68;3.30;;;27.90;79.00;;;;;;4958154;28;20047;-73
2023/07/08 08:54:09;;;;;;;8.05;3.30;;;27.80;76.30;;;;;;4956490;29;20081;-74
2023/07/08 08:57:11;;;;;;;5.60;3.50;;;28.00;78.70;;;;;;4957743;28;20039;-74
2023/07/08 08:59:44;;;;;;;6.60;3.50;;;28.30;79.40;;;;;;4957748;28;20078;-74
2023/07/08 09:02:22;;;;;;;6.55;3.28;;;28.80;78.60;;;;;;4957906;28;20491;-73
2023/07/08 09:04:48;;;;;;;6.28;3.45;;;29.00;77.80;;;;;;4956157;29;20047;-72
2023/07/08 09:07:18;;;;;;;6.35;3.17;;;29.20;77.10;;;;;;4957929;28;20071;-73
2023/07/08 09:10:04;;;;;;;7.80;3.40;;;29.20;75.50;;;;;;4957595;28;20047;-73
2023/07/08 09:12:32;;;;;;;6.45;3.28;;;29.20;72.60;;;;;;4956214;29;20294;-74
2023/07/08 09:14:58;;;;;;;6.00;3.20;;;29.10;73.40;;;;;;4940506;29;20043;-74
2023/07/08 09:17:33;;;;;;;6.03;3.20;;;29.30;73.40;;;;;;4957659;28;20051;-73
2023/07/08 09:20:22;;;;;;;6.07;3.33;;;29.30;72.10;;;;;;4957356;28;20035;-74
2023/07/08 09:23:07;;;;;;;6.28;3.53;;;29.40;73.70;;;;;;4957252;28;20043;-75
2023/07/08 09:25:48;;;;;;;6.80;3.20;;;29.40;71.50;;;;;;4957412;28;20066;-74
2023/07/08 09:28:14;;;;;;;8.75;3.45;;;29.50;70.90;;;;;;4957262;28;20035;-74
2023/07/08 09:30:40;;;;;;;6.63;3.35;;;29.60;70.40;;;;;;4957150;28;20047;-74
2023/07/08 09:33:09;;;;;;;7.03;3.65;;;29.60;70.00;;;;;;4955494;28;20038;-74
2023/07/08 09:35:41;;;;;;;5.95;3.38;;;29.90;69.80;;;;;;4957298;28;20039;-75
2023/07/08 09:38:15;;;;;;;6.65;3.38;;;29.80;69.10;;;;;;4957009;28;20054;-74
2023/07/08 09:40:46;;;;;;;8.57;3.40;;;29.50;68.70;;;;;;4957219;28;20055;-74
2023/07/08 09:43:28;;;;;;;7.35;3.47;;;29.60;71.40;;;;;;4955768;29;20055;-74
2023/07/08 09:45:58;;;;;;;8.15;3.33;;;29.90;69.50;;;;;;4956905;28;20054;-74
2023/07/08 09:48:33;;;;;;;7.07;3.40;;;29.80;68.90;;;;;;4956842;28;20043;-74
2023/07/08 09:51:00;;;;;;;8.55;3.40;;;29.90;67.80;;;;;;4956866;28;20396;-74
2023/07/08 09:53:29;;;;;;;5.65;3.50;;;29.80;70.10;;;;;;4955473;29;20135;-74
2023/07/08 09:55:58;;;;;;;7.00;3.53;;;29.50;68.70;;;;;;4956635;28;20039;-74
2023/07/08 09:58:31;;;;;;;6.93;3.28;;;29.90;71.30;;;;;;4956493;28;20106;-74
2023/07/08 10:01:13;;;;;;;7.07;3.50;;;30.20;69.70;;;;;;4955577;29;20059;-75
2023/07/08 10:03:40;;;;;;;7.07;3.33;;;30.30;69.10;;;;;;4956433;28;20069;-74
2023/07/08 10:06:19;;;;;;;7.32;3.50;;;30.40;68.90;;;;;;4956741;28;20399;-74
2023/07/08 10:08:46;;;;;;;6.05;3.47;;;30.50;69.00;;;;;;4955805;29;20579;-73
2023/07/08 10:11:23;;;;;;;6.60;3.15;;;30.60;67.40;;;;;;4955361;29;20435;-73
2023/07/08 10:13:53;;;;;;;6.25;3.42;;;30.70;67.20;;;;;;4956281;28;20134;-74
2023/07/08 10:16:30;;;;;;;6.97;3.33;;;30.60;64.70;;;;;;4956321;28;20126;-73
2023/07/08 10:18:58;;;;;;;7.10;3.63;;;30.70;67.50;;;;;;4956268;28;20174;-74
2023/07/08 10:21:33;;;;;;;6.95;3.40;;;31.00;67.30;;;;;;4954892;29;20468;-74
2023/07/08 10:24:37;;;;;;;7.03;3.38;;;31.10;67.30;;;;;;4956364;28;20043;-74
2023/07/08 10:27:18;;;;;;;8.98;4.07;;;31.10;65.40;;;;;;4950075;28;20503;-73
2023/07/08 10:30:19;;;;;;;7.25;3.50;;;31.30;68.30;;;;;;4956374;28;20099;-73
2023/07/08 10:32:59;;;;;;;7.45;3.50;;;31.50;65.50;;;;;;4955059;29;20117;-74
2023/07/08 10:35:32;;;;;;;7.67;3.30;;;31.40;66.20;;;;;;4956325;28;20487;-73
2023/07/08 10:38:26;;;;;;;7.78;3.70;;;31.50;67.70;;;;;;4956170;28;20275;-74
2023/07/08 10:41:00;;;;;;;8.30;3.42;;;31.70;62.40;;;;;;4955866;28;20035;-74
2023/07/08 10:43:53;;;;;;;8.43;3.83;;;31.70;61.60;;;;;;4955172;28;20070;-74
2023/07/08 10:46:45;;;;;;;7.93;3.60;;;31.20;62.00;;;;;;4955737;28;20057;-74
2023/07/08 10:49:31;;;;;;;8.05;3.60;;;31.00;61.00;;;;;;4955581;28;20587;-75
2023/07/08 10:52:28;;;;;;;7.30;3.50;;;31.10;61.00;;;;;;4954752;29;20570;-73
2023/07/08 10:55:03;;;;;;;7.03;3.50;;;31.30;62.10;;;;;;4955860;28;20043;-74
2023/07/08 10:58:06;;;;;;;6.20;3.60;;;31.40;61.10;;;;;;4955709;28;20398;-74
2023/07/08 11:01:06;;;;;;;6.90;3.45;;;31.40;62.60;;;;;;4954657;29;20039;-75
2023/07/08 11:03:35;;;;;;;5.70;3.30;;;31.60;59.60;;;;;;4955274;28;20088;-74
2023/07/08 11:06:14;;;;;;;7.68;3.42;;;31.60;59.80;;;;;;4955428;28;20047;-73
2023/07/08 11:08:55;;;;;;;6.53;3.50;;;31.80;59.40;;;;;;4955330;28;20085;-73
2023/07/08 11:11:27;;;;;;;6.20;3.50;;;31.90;58.90;;;;;;4954675;29;20082;-73
2023/07/08 11:13:58;;;;;;;5.85;3.42;;;31.80;60.10;;;;;;4955565;28;20047;-73
2023/07/08 11:16:36;;;;;;;7.10;3.65;;;31.90;59.00;;;;;;4955639;28;20484;-73
2023/07/08 11:19:09;;;;;;;6.13;3.38;;;31.70;58.20;;;;;;4955639;28;20074;-73
2023/07/08 11:21:51;;;;;;;8.07;3.30;;;32.00;55.70;;;;;;4955272;28;20073;-74
2023/07/08 11:24:42;;;;;;;6.78;3.20;;;32.00;57.50;;;;;;4955365;28;20054;-74
2023/07/08 11:27:32;;;;;;;5.75;3.53;;;32.10;56.10;;;;;;4946488;29;20559;-73
2023/07/08 11:30:01;;;;;;;6.57;3.35;;;31.70;56.30;;;;;;4955103;28;20049;-74
2023/07/08 11:32:28;;;;;;;5.57;3.60;;;32.00;56.10;;;;;;4954960;28;20123;-74
2023/07/08 11:34:56;;;;;;;5.82;3.55;;;32.30;57.70;;;;;;4938050;29;20051;-74
2023/07/08 11:37:23;;;;;;;6.45;3.63;;;32.40;55.40;;;;;;4955268;28;20043;-74
2023/07/08 11:40:08;;;;;;;6.43;3.53;;;32.40;56.50;;;;;;4953665;29;20089;-74
2023/07/08 11:42:43;;;;;;;7.40;3.80;;;32.20;56.00;;;;;;4955328;28;20050;-74
2023/07/08 11:45:18;;;;;;;8.07;3.70;;;32.40;56.10;;;;;;4954833;28;20044;-73
2023/07/08 11:47:48;;;;;;;6.13;3.45;;;32.40;55.10;;;;;;4955297;28;20043;-72
2023/07/08 11:50:35;;;;;;;7.35;3.55;;;32.60;55.70;;;;;;4955282;28;20075;-73
2023/07/08 11:53:10;;;;;;;7.03;3.58;;;32.80;57.20;;;;;;4955269;28;20133;-73
2023/07/08 11:55:41;;;;;;;6.25;3.60;;;32.90;54.60;;;;;;4955793;28;20043;-72
2023/07/08 11:58:54;;;;;;;6.55;4.07;;;32.80;54.60;;;;;;4957639;29;20043;-73
2023/07/08 12:01:28;;;;;;;8.55;4.10;;;32.80;56.30;;;;;;4912590;29;20492;-73
2023/07/08 12:04:09;;;;;;;7.30;4.03;;;32.60;52.10;;;;;;4958569;28;20163;-73
2023/07/08 12:06:35;;;;;;;6.63;3.67;;;32.50;53.00;;;;;;4957720;29;20403;-73
2023/07/08 12:09:27;;;;;;;5.97;3.70;;;32.30;53.80;;;;;;4958637;28;20043;-74
2023/07/08 12:12:01;;;;;;;6.60;3.60;;;32.50;53.50;;;;;;4958856;28;20093;-74
2023/07/08 12:14:28;;;;;;;7.13;4.18;;;32.40;54.10;;;;;;4958804;28;20055;-73
2023/07/08 12:16:55;;;;;;;7.15;4.20;;;32.60;54.50;;;;;;4958532;28;20077;-73
2023/07/08 12:19:25;;;;;;;7.40;4.30;;;32.80;54.00;;;;;;4958348;28;20040;-73
2023/07/08 12:21:51;;;;;;;7.57;4.13;;;32.80;52.60;;;;;;4957524;29;20494;-74
2023/07/08 12:24:18;;;;;;;8.23;4.40;;;32.90;52.90;;;;;;4958574;28;20371;-73
2023/07/08 12:26:44;;;;;;;9.35;4.20;;;32.80;52.70;;;;;;4958547;28;20043;-74
2023/07/08 12:29:13;;;;;;;6.68;4.40;;;32.80;53.90;;;;;;4958558;28;20134;-74
2023/07/08 12:31:42;;;;;;;8.15;4.90;;;32.90;53.30;;;;;;4958585;28;20065;-74
2023/07/08 12:34:14;;;;;;;6.38;4.60;;;32.70;51.60;;;;;;4958355;28;20039;-73
2023/07/08 12:36:42;;;;;;;7.80;4.97;;;32.70;51.70;;;;;;4958515;28;20043;-74
2023/07/08 12:39:14;;;;;;;9.93;5.22;;;32.90;51.40;;;;;;4940872;29;20051;-75
2023/07/08 12:41:46;;;;;;;8.07;5.13;;;33.00;47.60;;;;;;4957035;29;20049;-74
2023/07/08 12:44:19;;;;;;;7.55;4.63;;;32.80;50.60;;;;;;4957064;29;20047;-73
2023/07/08 12:46:46;;;;;;;7.30;4.65;;;33.00;52.60;;;;;;4958293;28;20043;-73
2023/07/08 12:49:13;;;;;;;9.40;4.97;;;33.10;51.50;;;;;;4958219;28;20074;-74
2023/07/08 12:51:42;;;;;;;7.95;4.70;;;32.90;50.10;;;;;;4956611;29;20043;-73
2023/07/08 12:54:10;;;;;;;7.70;4.80;;;32.80;50.50;;;;;;4956886;29;20102;-74
2023/07/08 12:56:37;;;;;;;9.02;5.00;;;33.10;52.10;;;;;;4957852;28;20114;-73
2023/07/08 12:59:05;;;;;;;8.43;5.13;;;33.20;53.00;;;;;;4958066;28;20102;-73